sensor_id;sensor_type;location;lat;lon;timestamp;temperature;humidity
4960;DHT22;2495;48.200;11.532;2023-03-14T00:04:16;15.20;65.90
4960;DHT22;2495;48.200;11.532;2023-03-14T00:09:17;15.10;65.50
4960;DHT22;2495;48.200;11.532;2023-03-14T00:14:18;14.90;65.40
4960;DHT22;2495;48.200;11.532;2023-03-14T00:19:19;15.10;66.10
4960;DHT22;2495;48.200;11.532;2023-03-14T00:24:20;15.00;65.90
4960;DHT22;2495;48.200;11.532;2023-03-14T00:29:22;14.90;66.30
4960;DHT22;2495;48.200;11.532;2023-03-14T00:34:23;15.00;67.00
4960;DHT22;2495;48.200;11.532;2023-03-14T00:39:24;15.00;67.50
4960;DHT22;2495;48.200;11.532;2023-03-14T00:44:25;14.90;66.70
4960;DHT22;2495;48.200;11.532;2023-03-14T00:49:27;14.80;67.00
4960;DHT22;2495;48.200;11.532;2023-03-14T00:54:28;14.70;67.50
4960;DHT22;2495;48.200;11.532;2023-03-14T00:59:29;14.90;68.40
4960;DHT22;2495;48.200;11.532;2023-03-14T01:04:30;15.30;68.10
4960;DHT22;2495;48.200;11.532;2023-03-14T01:09:32;15.40;68.30
4960;DHT22;2495;48.200;11.532;2023-03-14T01:14:33;15.20;68.50
4960;DHT22;2495;48.200;11.532;2023-03-14T01:19:34;15.10;69.70
4960;DHT22;2495;48.200;11.532;2023-03-14T01:24:38;15.20;70.40
4960;DHT22;2495;48.200;11.532;2023-03-14T01:29:39;15.00;70.90
4960;DHT22;2495;48.200;11.532;2023-03-14T01:34:40;14.70;70.90
4960;DHT22;2495;48.200;11.532;2023-03-14T01:39:42;14.50;71.70
4960;DHT22;2495;48.200;11.532;2023-03-14T01:44:59;14.20;72.60
4960;DHT22;2495;48.200;11.532;2023-03-14T01:50:02;14.20;75.60
4960;DHT22;2495;48.200;11.532;2023-03-14T01:55:05;14.40;75.60
4960;DHT22;2495;48.200;11.532;2023-03-14T02:00:12;14.30;75.40
4960;DHT22;2495;48.200;11.532;2023-03-14T02:05:14;14.20;77.60
4960;DHT22;2495;48.200;11.532;2023-03-14T02:10:14;14.00;77.40
4960;DHT22;2495;48.200;11.532;2023-03-14T02:15:15;13.80;79.60
4960;DHT22;2495;48.200;11.532;2023-03-14T02:20:27;13.80;79.90
4960;DHT22;2495;48.200;11.532;2023-03-14T02:25:49;13.80;80.20
4960;DHT22;2495;48.200;11.532;2023-03-14T02:30:49;13.60;80.40
4960;DHT22;2495;48.200;11.532;2023-03-14T02:35:52;13.20;80.30
4960;DHT22;2495;48.200;11.532;2023-03-14T02:40:51;13.20;81.10
4960;DHT22;2495;48.200;11.532;2023-03-14T02:45:52;13.30;80.90
4960;DHT22;2495;48.200;11.532;2023-03-14T02:50:55;13.10;80.70
4960;DHT22;2495;48.200;11.532;2023-03-14T02:55:55;12.80;81.20
4960;DHT22;2495;48.200;11.532;2023-03-14T03:00:56;12.60;82.10
4960;DHT22;2495;48.200;11.532;2023-03-14T03:05:57;12.70;83.20
4960;DHT22;2495;48.200;11.532;2023-03-14T03:10:58;12.60;82.60
4960;DHT22;2495;48.200;11.532;2023-03-14T03:15:59;12.80;82.70
4960;DHT22;2495;48.200;11.532;2023-03-14T03:21:01;12.70;82.00
4960;DHT22;2495;48.200;11.532;2023-03-14T03:26:02;12.50;82.00
4960;DHT22;2495;48.200;11.532;2023-03-14T03:31:09;12.40;82.20
4960;DHT22;2495;48.200;11.532;2023-03-14T03:36:11;12.30;82.60
4960;DHT22;2495;48.200;11.532;2023-03-14T03:41:12;12.20;82.50
4960;DHT22;2495;48.200;11.532;2023-03-14T03:46:13;12.40;83.00
4960;DHT22;2495;48.200;11.532;2023-03-14T03:51:15;12.50;82.10
4960;DHT22;2495;48.200;11.532;2023-03-14T03:56:15;12.30;82.00
4960;DHT22;2495;48.200;11.532;2023-03-14T04:01:17;12.40;82.30
4960;DHT22;2495;48.200;11.532;2023-03-14T04:06:18;12.70;82.00
4960;DHT22;2495;48.200;11.532;2023-03-14T04:11:19;12.60;81.00
4960;DHT22;2495;48.200;11.532;2023-03-14T04:16:21;12.30;81.00
4960;DHT22;2495;48.200;11.532;2023-03-14T04:21:21;12.10;80.70
4960;DHT22;2495;48.200;11.532;2023-03-14T04:26:23;12.00;81.10
4960;DHT22;2495;48.200;11.532;2023-03-14T04:31:24;11.90;81.00
4960;DHT22;2495;48.200;11.532;2023-03-14T04:36:25;12.10;81.40
4960;DHT22;2495;48.200;11.532;2023-03-14T04:41:26;12.00;80.20
4960;DHT22;2495;48.200;11.532;2023-03-14T04:46:28;11.70;79.60
4960;DHT22;2495;48.200;11.532;2023-03-14T04:51:29;11.70;80.00
4960;DHT22;2495;48.200;11.532;2023-03-14T04:56:30;11.60;80.20
4960;DHT22;2495;48.200;11.532;2023-03-14T05:01:31;11.60;80.20
4960;DHT22;2495;48.200;11.532;2023-03-14T05:06:33;11.60;80.20
4960;DHT22;2495;48.200;11.532;2023-03-14T05:11:34;11.60;81.10
4960;DHT22;2495;48.200;11.532;2023-03-14T05:16:35;11.80;81.00
4960;DHT22;2495;48.200;11.532;2023-03-14T05:21:36;11.70;80.10
4960;DHT22;2495;48.200;11.532;2023-03-14T05:26:39;11.70;80.80
4960;DHT22;2495;48.200;11.532;2023-03-14T05:31:40;11.80;80.60
4960;DHT22;2495;48.200;11.532;2023-03-14T05:36:41;11.70;79.10
4960;DHT22;2495;48.200;11.532;2023-03-14T05:41:42;11.60;79.00
4960;DHT22;2495;48.200;11.532;2023-03-14T05:46:44;11.60;80.20
4960;DHT22;2495;48.200;11.532;2023-03-14T05:51:48;11.80;80.10
4960;DHT22;2495;48.200;11.532;2023-03-14T05:56:49;11.80;79.60
4960;DHT22;2495;48.200;11.532;2023-03-14T06:01:51;11.70;78.60
4960;DHT22;2495;48.200;11.532;2023-03-14T06:07:02;11.50;78.30
4960;DHT22;2495;48.200;11.532;2023-03-14T06:12:54;11.30;79.10
4960;DHT22;2495;48.200;11.532;2023-03-14T06:17:57;11.30;79.50
4960;DHT22;2495;48.200;11.532;2023-03-14T06:22:58;11.20;78.60
4960;DHT22;2495;48.200;11.532;2023-03-14T06:28:00;11.40;79.80
4960;DHT22;2495;48.200;11.532;2023-03-14T06:33:01;11.70;79.30
4960;DHT22;2495;48.200;11.532;2023-03-14T06:38:02;12.00;78.90
4960;DHT22;2495;48.200;11.532;2023-03-14T06:43:03;11.90;78.00
4960;DHT22;2495;48.200;11.532;2023-03-14T06:48:05;11.70;77.80
4960;DHT22;2495;48.200;11.532;2023-03-14T06:53:07;11.60;78.10
4960;DHT22;2495;48.200;11.532;2023-03-14T06:58:09;11.60;77.70
4960;DHT22;2495;48.200;11.532;2023-03-14T07:03:10;11.60;77.60
4960;DHT22;2495;48.200;11.532;2023-03-14T07:08:14;11.60;77.80
4960;DHT22;2495;48.200;11.532;2023-03-14T07:13:15;11.60;77.60
4960;DHT22;2495;48.200;11.532;2023-03-14T07:18:21;11.80;78.60
4960;DHT22;2495;48.200;11.532;2023-03-14T07:28:57;11.80;76.30
4960;DHT22;2495;48.200;11.532;2023-03-14T07:33:57;11.70;76.20
4960;DHT22;2495;48.200;11.532;2023-03-14T07:39:00;11.70;75.70
4960;DHT22;2495;48.200;11.532;2023-03-14T07:44:06;11.70;75.70
4960;DHT22;2495;48.200;11.532;2023-03-14T07:49:10;11.90;76.20
4960;DHT22;2495;48.200;11.532;2023-03-14T07:54:11;12.10;75.10
4960;DHT22;2495;48.200;11.532;2023-03-14T07:59:13;12.10;75.00
4960;DHT22;2495;48.200;11.532;2023-03-14T08:04:14;12.40;76.00
4960;DHT22;2495;48.200;11.532;2023-03-14T08:09:16;12.60;74.40
4960;DHT22;2495;48.200;11.532;2023-03-14T08:14:17;12.60;73.20
4960;DHT22;2495;48.200;11.532;2023-03-14T08:19:18;12.60;73.20
4960;DHT22;2495;48.200;11.532;2023-03-14T08:24:19;12.60;73.20
4960;DHT22;2495;48.200;11.532;2023-03-14T08:29:21;13.00;73.80
4960;DHT22;2495;48.200;11.532;2023-03-14T08:34:23;13.00;72.20
4960;DHT22;2495;48.200;11.532;2023-03-14T08:39:28;13.20;71.80
4960;DHT22;2495;48.200;11.532;2023-03-14T08:44:29;13.20;71.30
4960;DHT22;2495;48.200;11.532;2023-03-14T08:49:30;13.10;70.00
4960;DHT22;2495;48.200;11.532;2023-03-14T08:54:32;13.00;70.30
4960;DHT22;2495;48.200;11.532;2023-03-14T08:59:33;13.10;70.20
4960;DHT22;2495;48.200;11.532;2023-03-14T09:04:34;13.30;70.50
4960;DHT22;2495;48.200;11.532;2023-03-14T09:09:36;13.20;68.40
4960;DHT22;2495;48.200;11.532;2023-03-14T09:14:37;13.20;68.00
4960;DHT22;2495;48.200;11.532;2023-03-14T09:19:38;13.40;67.80
4960;DHT22;2495;48.200;11.532;2023-03-14T09:24:40;13.40;67.20
4960;DHT22;2495;48.200;11.532;2023-03-14T09:29:42;13.40;67.40
4960;DHT22;2495;48.200;11.532;2023-03-14T09:34:44;13.40;67.60
4960;DHT22;2495;48.200;11.532;2023-03-14T09:39:46;13.40;67.60
4960;DHT22;2495;48.200;11.532;2023-03-14T09:44:57;13.40;67.30
4960;DHT22;2495;48.200;11.532;2023-03-14T09:49:58;13.40;67.40
4960;DHT22;2495;48.200;11.532;2023-03-14T09:55:06;13.30;66.60
4960;DHT22;2495;48.200;11.532;2023-03-14T10:00:16;13.70;67.80
4960;DHT22;2495;48.200;11.532;2023-03-14T10:05:18;14.10;65.40
4960;DHT22;2495;48.200;11.532;2023-03-14T10:10:22;14.30;64.90
4960;DHT22;2495;48.200;11.532;2023-03-14T10:15:24;14.40;63.00
4960;DHT22;2495;48.200;11.532;2023-03-14T10:20:34;14.60;61.90
4960;DHT22;2495;48.200;11.532;2023-03-14T10:25:35;14.70;61.80
4960;DHT22;2495;48.200;11.532;2023-03-14T10:35:36;18.50;55.80
4960;DHT22;2495;48.200;11.532;2023-03-14T10:40:39;17.90;54.20
4960;DHT22;2495;48.200;11.532;2023-03-14T10:57:14;15.10;58.40
4960;DHT22;2495;48.200;11.532;2023-03-14T11:02:40;15.10;58.30
4960;DHT22;2495;48.200;11.532;2023-03-14T11:07:47;14.90;58.20
4960;DHT22;2495;48.200;11.532;2023-03-14T11:36:09;16.00;55.30
4960;DHT22;2495;48.200;11.532;2023-03-14T11:41:31;16.40;53.20
4960;DHT22;2495;48.200;11.532;2023-03-14T11:46:47;16.80;53.00
4960;DHT22;2495;48.200;11.532;2023-03-14T11:51:50;16.20;54.00
4960;DHT22;2495;48.200;11.532;2023-03-14T11:56:58;15.80;55.10
4960;DHT22;2495;48.200;11.532;2023-03-14T12:07:09;15.40;55.90
4960;DHT22;2495;48.200;11.532;2023-03-14T12:12:10;15.40;55.80
4960;DHT22;2495;48.200;11.532;2023-03-14T12:22:27;15.20;55.50
4960;DHT22;2495;48.200;11.532;2023-03-14T12:43:36;15.00;56.70
4960;DHT22;2495;48.200;11.532;2023-03-14T12:48:38;15.20;56.10
4960;DHT22;2495;48.200;11.532;2023-03-14T12:54:15;16.50;53.80
4960;DHT22;2495;48.200;11.532;2023-03-14T12:59:36;16.10;54.00
4960;DHT22;2495;48.200;11.532;2023-03-14T13:04:43;15.70;55.20
4960;DHT22;2495;48.200;11.532;2023-03-14T13:09:50;15.20;55.90
4960;DHT22;2495;48.200;11.532;2023-03-14T13:14:51;14.80;56.90
4960;DHT22;2495;48.200;11.532;2023-03-14T13:19:53;14.60;57.20
4960;DHT22;2495;48.200;11.532;2023-03-14T13:25:04;14.70;57.50
4960;DHT22;2495;48.200;11.532;2023-03-14T13:30:14;14.60;58.20
4960;DHT22;2495;48.200;11.532;2023-03-14T13:35:37;14.50;59.50
4960;DHT22;2495;48.200;11.532;2023-03-14T13:40:32;14.50;60.40
4960;DHT22;2495;48.200;11.532;2023-03-14T13:51:23;13.70;65.60
4960;DHT22;2495;48.200;11.532;2023-03-14T13:56:25;13.60;66.20
4960;DHT22;2495;48.200;11.532;2023-03-14T14:01:29;13.60;65.20
4960;DHT22;2495;48.200;11.532;2023-03-14T14:06:37;13.30;64.90
4960;DHT22;2495;48.200;11.532;2023-03-14T14:17:08;12.40;70.50
4960;DHT22;2495;48.200;11.532;2023-03-14T14:22:10;12.20;73.50
4960;DHT22;2495;48.200;11.532;2023-03-14T14:27:18;11.60;76.40
4960;DHT22;2495;48.200;11.532;2023-03-14T14:32:34;11.80;76.00
4960;DHT22;2495;48.200;11.532;2023-03-14T14:37:33;11.50;77.50
4960;DHT22;2495;48.200;11.532;2023-03-14T14:42:33;11.30;79.00
4960;DHT22;2495;48.200;11.532;2023-03-14T14:47:35;11.10;78.90
4960;DHT22;2495;48.200;11.532;2023-03-14T14:52:39;10.80;80.20
4960;DHT22;2495;48.200;11.532;2023-03-14T14:57:38;10.80;79.20
4960;DHT22;2495;48.200;11.532;2023-03-14T15:02:41;10.40;79.50
4960;DHT22;2495;48.200;11.532;2023-03-14T15:07:44;10.30;80.40
4960;DHT22;2495;48.200;11.532;2023-03-14T15:12:49;10.30;79.00
4960;DHT22;2495;48.200;11.532;2023-03-14T15:17:47;10.40;78.80
4960;DHT22;2495;48.200;11.532;2023-03-14T15:23:00;10.60;78.40
4960;DHT22;2495;48.200;11.532;2023-03-14T15:28:26;10.90;80.30
4960;DHT22;2495;48.200;11.532;2023-03-14T15:33:27;10.90;81.10
4960;DHT22;2495;48.200;11.532;2023-03-14T15:38:49;10.70;80.50
4960;DHT22;2495;48.200;11.532;2023-03-14T15:43:39;10.50;80.20
4960;DHT22;2495;48.200;11.532;2023-03-14T15:48:50;10.30;79.10
4960;DHT22;2495;48.200;11.532;2023-03-14T15:53:51;10.20;78.30
4960;DHT22;2495;48.200;11.532;2023-03-14T15:58:53;10.10;77.60
4960;DHT22;2495;48.200;11.532;2023-03-14T16:09:00;10.10;76.40
4960;DHT22;2495;48.200;11.532;2023-03-14T16:14:01;10.10;74.70
4960;DHT22;2495;48.200;11.532;2023-03-14T16:19:12;10.00;74.40
4960;DHT22;2495;48.200;11.532;2023-03-14T16:24:13;10.10;74.20
4960;DHT22;2495;48.200;11.532;2023-03-14T16:29:14;10.10;73.50
4960;DHT22;2495;48.200;11.532;2023-03-14T17:12:12;9.90;64.80
4960;DHT22;2495;48.200;11.532;2023-03-14T17:24:32;9.60;65.90
4960;DHT22;2495;48.200;11.532;2023-03-14T17:29:33;9.40;65.20
4960;DHT22;2495;48.200;11.532;2023-03-14T17:34:40;9.40;64.20
4960;DHT22;2495;48.200;11.532;2023-03-14T17:39:44;9.30;64.00
4960;DHT22;2495;48.200;11.532;2023-03-14T17:44:46;9.30;62.80
4960;DHT22;2495;48.200;11.532;2023-03-14T17:49:47;9.20;60.50
4960;DHT22;2495;48.200;11.532;2023-03-14T17:54:57;9.20;59.70
4960;DHT22;2495;48.200;11.532;2023-03-14T18:00:06;9.20;61.60
4960;DHT22;2495;48.200;11.532;2023-03-14T18:05:07;9.20;61.50
4960;DHT22;2495;48.200;11.532;2023-03-14T18:10:10;9.20;60.30
4960;DHT22;2495;48.200;11.532;2023-03-14T18:15:13;9.10;59.70
4960;DHT22;2495;48.200;11.532;2023-03-14T18:20:19;9.10;58.90
4960;DHT22;2495;48.200;11.532;2023-03-14T19:13:50;8.90;59.40
4960;DHT22;2495;48.200;11.532;2023-03-14T19:18:52;9.20;60.40
4960;DHT22;2495;48.200;11.532;2023-03-14T19:23:53;9.20;59.70
4960;DHT22;2495;48.200;11.532;2023-03-14T19:28:54;9.10;59.90
4960;DHT22;2495;48.200;11.532;2023-03-14T19:33:56;9.00;61.40
4960;DHT22;2495;48.200;11.532;2023-03-14T19:38:58;9.00;60.60
4960;DHT22;2495;48.200;11.532;2023-03-14T19:43:59;9.00;60.90
4960;DHT22;2495;48.200;11.532;2023-03-14T19:49:00;9.30;62.80
4960;DHT22;2495;48.200;11.532;2023-03-14T19:54:03;9.40;61.50
4960;DHT22;2495;48.200;11.532;2023-03-14T19:59:04;9.70;62.30
4960;DHT22;2495;48.200;11.532;2023-03-14T20:04:08;9.70;61.20
4960;DHT22;2495;48.200;11.532;2023-03-14T20:09:33;9.50;61.20
4960;DHT22;2495;48.200;11.532;2023-03-14T20:14:39;9.40;61.70
4960;DHT22;2495;48.200;11.532;2023-03-14T20:19:50;9.30;62.90
4960;DHT22;2495;48.200;11.532;2023-03-14T20:24:52;9.30;62.20
4960;DHT22;2495;48.200;11.532;2023-03-14T20:30:03;9.40;62.60
4960;DHT22;2495;48.200;11.532;2023-03-14T20:35:06;9.40;63.50
4960;DHT22;2495;48.200;11.532;2023-03-14T23:43:18;7.10;73.30
4960;DHT22;2495;48.200;11.532;2023-03-14T23:48:15;7.30;73.80
4960;DHT22;2495;48.200;11.532;2023-03-14T23:53:21;7.50;72.40
